Time;durP1;ratioP1;P1;durP2;ratioP2;P2;SDS_P1;SDS_P2;PMS_P1;PMS_P2;Temp;Humidity;BMP_temperature;BMP_pressure;BME280_temperature;BME280_humidity;BME280_pressure;Samples;Min_cycle;Max_cycle;Signal;HPM_P1;HPM_P2
2021/12/10 00:00:00;;;;;;;0.60;0.60;;;;;;;;;;5026469;28;20209;-64
2021/12/10 00:02:34;;;;;;;0.60;0.60;;;;;;;;;;5027108;28;20250;-64
2021/12/10 00:05:00;;;;;;;0.50;0.50;;;;;;;;;;5029225;28;20667;-64
2021/12/10 00:07:27;;;;;;;0.60;0.60;;;;;;;;;;5032878;28;20180;-64
2021/12/10 00:09:55;;;;;;;0.50;0.50;;;;;;;;;;5035021;28;20230;-64
2021/12/10 00:12:23;;;;;;;0.50;0.50;;;;;;;;;;5018457;28;20212;-64
2021/12/10 00:14:49;;;;;;;0.50;0.50;;;;;;;;;;5035135;28;20180;-64
2021/12/10 00:17:16;;;;;;;0.52;0.52;;;;;;;;;;5034898;28;20181;-64
2021/12/10 00:19:55;;;;;;;0.50;0.50;;;;;;;;;;5034842;28;20200;-64
2021/12/10 00:22:23;;;;;;;0.50;0.50;;;;;;;;;;5010246;28;20188;-65
2021/12/10 00:24:50;;;;;;;0.50;0.50;;;;;;;;;;5034938;28;20176;-64
2021/12/10 00:27:27;;;;;;;0.70;0.70;;;;;;;;;;5029880;28;20556;-64
2021/12/10 00:29:53;;;;;;;0.60;0.60;;;;;;;;;;5016681;28;20563;-64
2021/12/10 00:32:30;;;;;;;0.60;0.60;;;;;;;;;;5034189;28;20287;-64
2021/12/10 00:34:58;;;;;;;0.60;0.60;;;;;;;;;;5034223;28;20187;-65
2021/12/10 00:37:25;;;;;;;0.50;0.50;;;;;;;;;;5034695;28;20201;-64
2021/12/10 00:39:52;;;;;;;0.60;0.60;;;;;;;;;;5024415;28;20291;-64
2021/12/10 00:42:21;;;;;;;0.50;0.50;;;;;;;;;;5014387;28;20193;-65
2021/12/10 00:44:47;;;;;;;0.60;0.60;;;;;;;;;;5033647;28;20204;-64
2021/12/10 00:47:13;;;;;;;0.50;0.50;;;;;;;;;;5034148;28;20183;-64
2021/12/10 00:49:39;;;;;;;0.50;0.50;;;;;;;;;;5033969;28;20181;-64
2021/12/10 00:52:06;;;;;;;0.50;0.50;;;;;;;;;;5016029;28;20278;-65
2021/12/10 00:54:32;;;;;;;0.60;0.60;;;;;;;;;;5034431;28;20180;-64
2021/12/10 00:56:58;;;;;;;0.60;0.60;;;;;;;;;;5032910;28;20174;-64
2021/12/10 00:59:24;;;;;;;0.60;0.60;;;;;;;;;;5036902;28;20462;-66
2021/12/10 01:01:50;;;;;;;0.50;0.50;;;;;;;;;;5037334;28;20692;-64
2021/12/10 01:04:18;;;;;;;0.50;0.50;;;;;;;;;;5037913;28;20423;-66
2021/12/10 01:06:46;;;;;;;0.50;0.50;;;;;;;;;;5037662;28;20177;-64
2021/12/10 01:09:15;;;;;;;0.60;0.60;;;;;;;;;;5029517;28;20238;-65
2021/12/10 01:11:48;;;;;;;0.60;0.60;;;;;;;;;;5035924;28;20236;-64
2021/12/10 01:14:22;;;;;;;0.60;0.60;;;;;;;;;;5036026;28;20212;-64
2021/12/10 01:25:11;;;;;;;0.50;0.50;;;;;;;;;;5033802;28;20770;-64
2021/12/10 01:27:38;;;;;;;0.50;0.50;;;;;;;;;;5033626;28;20660;-64
2021/12/10 01:30:10;;;;;;;0.50;0.50;;;;;;;;;;5033604;28;20576;-64
2021/12/10 01:32:38;;;;;;;0.60;0.60;;;;;;;;;;5032734;28;20208;-64
2021/12/10 01:35:06;;;;;;;0.70;0.70;;;;;;;;;;5033355;28;20255;-64
2021/12/10 01:37:32;;;;;;;0.63;0.63;;;;;;;;;;5033034;28;20185;-64
2021/12/10 01:39:58;;;;;;;0.57;0.57;;;;;;;;;;5033392;28;20201;-64
2021/12/10 01:44:54;;;;;;;0.70;0.70;;;;;;;;;;5031725;28;20212;-64
2021/12/10 01:47:23;;;;;;;0.50;0.50;;;;;;;;;;5028157;28;20173;-64
2021/12/10 01:49:49;;;;;;;0.50;0.50;;;;;;;;;;5032904;28;20213;-64
2021/12/10 01:52:16;;;;;;;0.50;0.50;;;;;;;;;;5032843;28;20207;-63
2021/12/10 01:54:45;;;;;;;0.60;0.60;;;;;;;;;;5015015;28;20640;-63
2021/12/10 01:57:12;;;;;;;0.50;0.50;;;;;;;;;;4999216;28;20263;-64
2021/12/10 01:59:39;;;;;;;0.60;0.60;;;;;;;;;;5033148;28;20254;-63
2021/12/10 02:02:10;;;;;;;0.60;0.60;;;;;;;;;;5032603;28;20224;-64
2021/12/10 02:04:38;;;;;;;0.60;0.60;;;;;;;;;;5030740;28;20184;-64
2021/12/10 02:07:05;;;;;;;0.50;0.50;;;;;;;;;;5031909;28;20711;-64
2021/12/10 02:09:31;;;;;;;0.50;0.50;;;;;;;;;;5031768;28;20187;-64
2021/12/10 02:11:57;;;;;;;0.60;0.60;;;;;;;;;;5015866;28;20220;-64
2021/12/10 02:14:23;;;;;;;0.70;0.70;;;;;;;;;;5032154;28;20239;-64
2021/12/10 02:16:51;;;;;;;0.50;0.50;;;;;;;;;;5032443;28;20451;-64
2021/12/10 02:19:18;;;;;;;0.70;0.70;;;;;;;;;;5032494;28;20326;-64
2021/12/10 02:21:44;;;;;;;0.50;0.50;;;;;;;;;;5032174;28;20231;-65
2021/12/10 02:24:11;;;;;;;0.50;0.50;;;;;;;;;;5032347;28;20199;-64
2021/12/10 02:26:39;;;;;;;0.70;0.70;;;;;;;;;;5031610;28;20177;-64
2021/12/10 02:29:06;;;;;;;0.70;0.70;;;;;;;;;;5032330;28;20200;-64
2021/12/10 02:31:32;;;;;;;0.60;0.60;;;;;;;;;;5029706;28;20288;-64
2021/12/10 02:34:01;;;;;;;0.60;0.60;;;;;;;;;;5032018;28;20544;-64
2021/12/10 02:36:27;;;;;;;0.50;0.50;;;;;;;;;;5031257;28;20560;-64
2021/12/10 02:38:54;;;;;;;0.70;0.70;;;;;;;;;;5031627;28;20668;-64
2021/12/10 02:41:23;;;;;;;0.60;0.60;;;;;;;;;;5025319;28;20193;-64
2021/12/10 02:43:49;;;;;;;0.60;0.60;;;;;;;;;;5031966;28;20542;-64
2021/12/10 02:46:15;;;;;;;0.70;0.70;;;;;;;;;;5032423;28;20235;-64
2021/12/10 02:48:41;;;;;;;0.70;0.70;;;;;;;;;;5031885;28;20183;-64
2021/12/10 02:51:08;;;;;;;0.70;0.70;;;;;;;;;;5031947;28;20189;-65
2021/12/10 02:53:40;;;;;;;0.60;0.60;;;;;;;;;;5031384;28;20180;-64
2021/12/10 02:56:06;;;;;;;0.50;0.50;;;;;;;;;;5031862;28;20187;-64
2021/12/10 02:58:32;;;;;;;0.60;0.60;;;;;;;;;;5031233;28;20188;-65
2021/12/10 03:01:01;;;;;;;0.60;0.60;;;;;;;;;;5031490;28;20565;-64
2021/12/10 03:03:27;;;;;;;0.50;0.50;;;;;;;;;;5031613;28;20188;-64
2021/12/10 03:05:53;;;;;;;0.50;0.50;;;;;;;;;;5031607;28;20180;-64
2021/12/10 03:08:19;;;;;;;0.75;0.75;;;;;;;;;;5031454;28;20177;-64
2021/12/10 03:10:46;;;;;;;0.60;0.60;;;;;;;;;;5030980;28;20710;-64
2021/12/10 03:13:12;;;;;;;0.70;0.70;;;;;;;;;;5031473;28;20185;-64
2021/12/10 03:15:39;;;;;;;0.70;0.70;;;;;;;;;;5031428;28;20264;-64
2021/12/10 03:18:07;;;;;;;0.60;0.60;;;;;;;;;;5031546;28;20184;-64
2021/12/10 03:20:34;;;;;;;0.50;0.50;;;;;;;;;;5030772;28;20212;-64
2021/12/10 03:23:00;;;;;;;0.60;0.60;;;;;;;;;;5031171;28;20172;-64
2021/12/10 03:25:27;;;;;;;0.57;0.57;;;;;;;;;;5031467;28;20584;-64
2021/12/10 03:27:53;;;;;;;0.57;0.57;;;;;;;;;;5031484;28;20538;-64
2021/12/10 03:30:21;;;;;;;0.50;0.50;;;;;;;;;;5031194;28;20187;-64
2021/12/10 03:32:47;;;;;;;0.60;0.60;;;;;;;;;;5031216;28;20300;-64
2021/12/10 03:35:22;;;;;;;0.70;0.70;;;;;;;;;;5030632;28;20256;-64
2021/12/10 03:37:48;;;;;;;0.60;0.60;;;;;;;;;;5031260;28;20178;-64
2021/12/10 03:40:16;;;;;;;0.60;0.60;;;;;;;;;;5031254;28;20579;-65
2021/12/10 03:42:42;;;;;;;0.60;0.60;;;;;;;;;;5031179;28;20192;-64
2021/12/10 03:45:09;;;;;;;0.60;0.60;;;;;;;;;;5030445;28;20199;-64
2021/12/10 03:47:35;;;;;;;0.50;0.50;;;;;;;;;;5031215;28;20165;-64
2021/12/10 03:50:01;;;;;;;0.50;0.50;;;;;;;;;;5030972;28;20173;-64
2021/12/10 03:52:27;;;;;;;0.57;0.57;;;;;;;;;;5030840;28;20254;-64
2021/12/10 03:54:54;;;;;;;0.65;0.65;;;;;;;;;;5031050;28;20628;-64
2021/12/10 03:57:20;;;;;;;0.60;0.60;;;;;;;;;;5013235;28;20180;-64
2021/12/10 03:59:46;;;;;;;0.60;0.60;;;;;;;;;;5031174;28;20299;-64
2021/12/10 04:02:13;;;;;;;0.60;0.60;;;;;;;;;;5030713;28;20632;-64
2021/12/10 04:04:42;;;;;;;0.60;0.60;;;;;;;;;;5031049;28;20242;-64
2021/12/10 04:07:10;;;;;;;0.50;0.50;;;;;;;;;;5030506;28;20176;-64
2021/12/10 04:09:36;;;;;;;0.60;0.60;;;;;;;;;;5031266;28;20185;-64
2021/12/10 04:12:03;;;;;;;0.60;0.60;;;;;;;;;;5030389;28;20579;-65
2021/12/10 04:14:29;;;;;;;0.70;0.70;;;;;;;;;;5030930;28;20184;-64
2021/12/10 04:16:56;;;;;;;0.60;0.60;;;;;;;;;;5031011;28;20676;-64
2021/12/10 04:19:24;;;;;;;0.50;0.50;;;;;;;;;;5030240;28;20467;-64
2021/12/10 04:21:52;;;;;;;0.50;0.50;;;;;;;;;;5012827;28;20200;-64
2021/12/10 04:24:20;;;;;;;0.55;0.55;;;;;;;;;;5030824;28;20173;-64
2021/12/10 04:26:47;;;;;;;0.60;0.60;;;;;;;;;;5030898;28;20187;-64
2021/12/10 04:29:14;;;;;;;0.60;0.60;;;;;;;;;;5030634;28;20718;-64
2021/12/10 04:31:40;;;;;;;0.60;0.60;;;;;;;;;;5031186;28;20208;-64
2021/12/10 04:34:06;;;;;;;0.60;0.60;;;;;;;;;;5034022;28;20271;-64
2021/12/10 04:36:33;;;;;;;0.50;0.50;;;;;;;;;;5034427;28;20213;-64
2021/12/10 04:38:59;;;;;;;0.50;0.50;;;;;;;;;;5016437;28;20196;-64
2021/12/10 04:41:26;;;;;;;0.60;0.60;;;;;;;;;;5034328;28;20197;-64
2021/12/10 04:43:52;;;;;;;0.82;0.82;;;;;;;;;;5034352;28;20185;-64
2021/12/10 04:46:18;;;;;;;0.60;0.60;;;;;;;;;;5034183;28;20195;-64
2021/12/10 04:48:47;;;;;;;0.63;0.63;;;;;;;;;;5034384;28;20185;-64
2021/12/10 04:51:13;;;;;;;0.50;0.50;;;;;;;;;;5033719;28;20192;-64
2021/12/10 04:53:39;;;;;;;0.60;0.60;;;;;;;;;;5034312;28;20177;-64
2021/12/10 04:56:05;;;;;;;0.60;0.60;;;;;;;;;;5034087;28;20200;-64
2021/12/10 04:58:32;;;;;;;0.70;0.70;;;;;;;;;;5016290;28;20181;-64
2021/12/10 05:00:59;;;;;;;0.70;0.70;;;;;;;;;;5027623;28;20312;-64
2021/12/10 05:03:25;;;;;;;0.60;0.60;;;;;;;;;;5014537;28;20166;-64
2021/12/10 05:05:55;;;;;;;0.60;0.60;;;;;;;;;;5014348;28;20642;-62
2021/12/10 05:08:21;;;;;;;0.50;0.50;;;;;;;;;;5031864;28;20424;-64
2021/12/10 05:10:47;;;;;;;0.60;0.60;;;;;;;;;;5015671;28;20187;-64
2021/12/10 05:13:13;;;;;;;0.60;0.60;;;;;;;;;;5104364;22;20587;-66
2021/12/10 05:15:39;;;;;;;0.60;0.60;;;;;;;;;;5093490;28;20193;-66
2021/12/10 05:18:08;;;;;;;0.60;0.60;;;;;;;;;;5076070;28;20664;-66
2021/12/10 05:20:36;;;;;;;0.60;0.60;;;;;;;;;;5093987;28;20586;-66
2021/12/10 05:23:03;;;;;;;0.50;0.50;;;;;;;;;;5090834;28;20243;-66
2021/12/10 05:25:29;;;;;;;0.60;0.60;;;;;;;;;;5078644;28;20590;-67
2021/12/10 05:27:56;;;;;;;0.50;0.50;;;;;;;;;;5079817;28;20647;-67
2021/12/10 05:30:23;;;;;;;0.57;0.57;;;;;;;;;;5077976;28;20552;-67
2021/12/10 05:32:49;;;;;;;0.60;0.60;;;;;;;;;;5088559;28;20223;-66
2021/12/10 05:35:15;;;;;;;0.70;0.70;;;;;;;;;;5078126;28;20231;-66
2021/12/10 05:37:41;;;;;;;0.60;0.60;;;;;;;;;;5081707;28;20190;-67
2021/12/10 05:40:11;;;;;;;0.60;0.60;;;;;;;;;;5083097;28;20198;-63
2021/12/10 05:42:37;;;;;;;0.70;0.70;;;;;;;;;;5091746;28;20628;-66
2021/12/10 05:45:05;;;;;;;0.50;0.50;;;;;;;;;;5074548;28;20217;-67
2021/12/10 05:47:31;;;;;;;0.70;0.70;;;;;;;;;;5073770;28;20742;-65
2021/12/10 05:49:57;;;;;;;0.60;0.60;;;;;;;;;;5083284;28;20660;-66
2021/12/10 05:52:23;;;;;;;0.60;0.60;;;;;;;;;;5087952;28;20194;-66
2021/12/10 05:54:50;;;;;;;0.60;0.60;;;;;;;;;;5073696;28;20712;-66
2021/12/10 05:57:16;;;;;;;0.50;0.50;;;;;;;;;;5081728;28;20460;-61
2021/12/10 05:59:42;;;;;;;0.60;0.60;;;;;;;;;;5090169;28;20221;-64
2021/12/10 06:02:08;;;;;;;0.60;0.60;;;;;;;;;;5087236;28;20697;-65
2021/12/10 06:04:35;;;;;;;0.60;0.60;;;;;;;;;;5093458;28;20409;-67
2021/12/10 06:07:01;;;;;;;0.60;0.60;;;;;;;;;;5092780;28;20183;-66
2021/12/10 06:09:27;;;;;;;0.50;0.50;;;;;;;;;;5090672;28;20191;-65
2021/12/10 06:11:53;;;;;;;0.60;0.60;;;;;;;;;;5084894;28;20217;-66
2021/12/10 06:14:19;;;;;;;0.70;0.70;;;;;;;;;;5089145;28;20281;-66
2021/12/10 06:16:45;;;;;;;0.50;0.50;;;;;;;;;;5084784;28;20182;-65
2021/12/10 06:19:11;;;;;;;0.60;0.60;;;;;;;;;;5091983;28;20202;-66
2021/12/10 06:21:39;;;;;;;0.60;0.60;;;;;;;;;;5084774;28;20561;-66
2021/12/10 06:24:05;;;;;;;0.60;0.60;;;;;;;;;;5083959;28;20170;-66
2021/12/10 06:26:31;;;;;;;0.60;0.60;;;;;;;;;;5085375;28;20212;-65
2021/12/10 06:28:58;;;;;;;0.57;0.57;;;;;;;;;;5080679;28;20175;-65
2021/12/10 06:31:24;;;;;;;0.60;0.60;;;;;;;;;;5072163;28;20167;-66
2021/12/10 06:33:50;;;;;;;0.70;0.70;;;;;;;;;;5091425;28;20182;-67
2021/12/10 06:36:17;;;;;;;0.70;0.70;;;;;;;;;;5092662;28;20558;-66
2021/12/10 06:38:44;;;;;;;0.50;0.50;;;;;;;;;;5092610;28;20637;-67
2021/12/10 06:41:10;;;;;;;0.70;0.70;;;;;;;;;;5092235;28;20202;-67
2021/12/10 06:43:36;;;;;;;0.60;0.60;;;;;;;;;;5091693;28;20190;-67
2021/12/10 06:46:05;;;;;;;0.60;0.60;;;;;;;;;;5091885;28;20181;-64
2021/12/10 06:48:31;;;;;;;0.60;0.60;;;;;;;;;;5087515;28;20170;-66
2021/12/10 06:51:02;;;;;;;0.50;0.50;;;;;;;;;;5073622;28;20189;-67
2021/12/10 06:53:29;;;;;;;0.60;0.60;;;;;;;;;;5087835;28;20439;-66
2021/12/10 06:55:55;;;;;;;0.60;0.60;;;;;;;;;;5071984;28;20183;-66
2021/12/10 06:58:23;;;;;;;0.60;0.60;;;;;;;;;;5075255;28;20230;-67
2021/12/10 07:00:55;;;;;;;0.70;0.70;;;;;;;;;;5073922;28;20639;-66
2021/12/10 07:03:22;;;;;;;0.70;0.70;;;;;;;;;;5079885;28;20663;-67
2021/12/10 07:05:49;;;;;;;0.60;0.60;;;;;;;;;;5091616;28;20783;-67
2021/12/10 07:08:15;;;;;;;0.60;0.60;;;;;;;;;;5090914;28;20220;-67
2021/12/10 07:10:42;;;;;;;0.60;0.60;;;;;;;;;;5075783;28;20183;-67
2021/12/10 07:13:08;;;;;;;0.70;0.70;;;;;;;;;;5091667;28;20256;-67
2021/12/10 07:15:35;;;;;;;0.60;0.60;;;;;;;;;;5073827;28;20189;-66
2021/12/10 07:18:02;;;;;;;0.60;0.60;;;;;;;;;;5089351;28;20269;-67
2021/12/10 07:20:28;;;;;;;0.50;0.50;;;;;;;;;;5075442;28;20193;-67
2021/12/10 07:22:54;;;;;;;0.60;0.60;;;;;;;;;;5081758;28;20198;-67
2021/12/10 07:25:20;;;;;;;0.60;0.60;;;;;;;;;;5091827;28;20490;-67
2021/12/10 07:27:46;;;;;;;0.60;0.60;;;;;;;;;;5082373;28;20288;-66
2021/12/10 07:30:12;;;;;;;0.60;0.60;;;;;;;;;;5090986;28;20178;-67
2021/12/10 07:32:38;;;;;;;0.60;0.60;;;;;;;;;;5089658;28;20577;-66
2021/12/10 07:35:06;;;;;;;0.50;0.50;;;;;;;;;;5090744;28;20185;-67
2021/12/10 07:37:32;;;;;;;0.60;0.60;;;;;;;;;;5071989;28;20182;-67
2021/12/10 07:39:58;;;;;;;0.50;0.50;;;;;;;;;;5087339;28;20207;-66
2021/12/10 07:42:24;;;;;;;0.70;0.70;;;;;;;;;;5076941;28;20205;-67
2021/12/10 07:44:51;;;;;;;0.50;0.50;;;;;;;;;;5086536;28;20426;-66
2021/12/10 07:47:17;;;;;;;0.60;0.60;;;;;;;;;;5089201;28;20668;-67
2021/12/10 07:49:44;;;;;;;0.70;0.70;;;;;;;;;;5087881;28;20178;-67
2021/12/10 07:52:18;;;;;;;0.60;0.60;;;;;;;;;;5081909;28;20281;-67
2021/12/10 07:54:46;;;;;;;0.60;0.60;;;;;;;;;;5071327;28;20182;-66
2021/12/10 07:57:12;;;;;;;0.60;0.60;;;;;;;;;;5071617;28;20677;-67
2021/12/10 07:59:39;;;;;;;0.50;0.50;;;;;;;;;;5070720;28;20234;-67
2021/12/10 08:02:05;;;;;;;0.60;0.60;;;;;;;;;;5070934;28;20246;-67
2021/12/10 08:04:31;;;;;;;0.70;0.70;;;;;;;;;;5071193;28;20171;-67
2021/12/10 08:06:57;;;;;;;0.70;0.70;;;;;;;;;;5073644;28;20182;-67
2021/12/10 08:09:23;;;;;;;0.60;0.60;;;;;;;;;;5075191;28;20428;-66
2021/12/10 08:11:49;;;;;;;0.70;0.70;;;;;;;;;;5074233;28;20437;-67
2021/12/10 08:14:15;;;;;;;0.60;0.60;;;;;;;;;;5074483;28;20448;-67
2021/12/10 08:16:41;;;;;;;0.50;0.50;;;;;;;;;;5074776;28;20650;-66
2021/12/10 08:19:07;;;;;;;0.50;0.50;;;;;;;;;;5074969;28;20421;-67
2021/12/10 08:21:33;;;;;;;0.60;0.60;;;;;;;;;;5092991;28;20633;-67
2021/12/10 08:23:59;;;;;;;0.60;0.60;;;;;;;;;;5094948;28;20250;-65
2021/12/10 08:26:25;;;;;;;0.70;0.70;;;;;;;;;;5095210;28;20400;-66
2021/12/10 08:28:52;;;;;;;0.50;0.50;;;;;;;;;;5095122;28;20174;-67
2021/12/10 08:31:18;;;;;;;0.70;0.70;;;;;;;;;;5094732;28;20567;-67
2021/12/10 08:33:47;;;;;;;0.70;0.70;;;;;;;;;;5094570;28;20597;-67
2021/12/10 08:36:14;;;;;;;0.60;0.60;;;;;;;;;;5094925;28;20170;-66
2021/12/10 08:38:40;;;;;;;0.50;0.50;;;;;;;;;;5094898;28;20167;-67
2021/12/10 08:41:08;;;;;;;0.50;0.50;;;;;;;;;;5094661;28;20194;-68
2021/12/10 08:43:34;;;;;;;0.60;0.60;;;;;;;;;;5094271;28;20341;-66
2021/12/10 08:46:01;;;;;;;0.60;0.60;;;;;;;;;;5076514;28;20179;-67
2021/12/10 08:48:28;;;;;;;0.60;0.60;;;;;;;;;;5094596;28;20572;-66
2021/12/10 08:50:55;;;;;;;0.43;0.43;;;;;;;;;;5094358;28;20223;-67
2021/12/10 08:53:21;;;;;;;0.60;0.60;;;;;;;;;;5094799;28;20225;-68
2021/12/10 08:55:49;;;;;;;0.60;0.60;;;;;;;;;;5094282;28;20170;-66
2021/12/10 08:58:15;;;;;;;0.50;0.50;;;;;;;;;;5094573;28;20181;-67
2021/12/10 09:00:45;;;;;;;0.60;0.60;;;;;;;;;;5095185;28;20225;-66
2021/12/10 09:03:11;;;;;;;0.50;0.50;;;;;;;;;;5094895;28;20194;-66
2021/12/10 09:05:38;;;;;;;0.50;0.50;;;;;;;;;;5094324;28;20579;-66
2021/12/10 09:08:04;;;;;;;0.60;0.60;;;;;;;;;;5094212;28;20171;-66
2021/12/10 09:10:33;;;;;;;0.50;0.50;;;;;;;;;;5094087;28;20170;-66
2021/12/10 09:12:59;;;;;;;0.60;0.60;;;;;;;;;;5094182;28;20297;-67
2021/12/10 09:15:27;;;;;;;0.60;0.60;;;;;;;;;;5093959;28;20166;-67
2021/12/10 09:17:57;;;;;;;0.55;0.55;;;;;;;;;;5093012;28;20175;-67
2021/12/10 09:20:26;;;;;;;0.60;0.60;;;;;;;;;;5093949;28;20229;-66
2021/12/10 09:22:53;;;;;;;0.50;0.50;;;;;;;;;;5094250;28;20327;-66
2021/12/10 09:25:19;;;;;;;0.68;0.68;;;;;;;;;;5094289;28;20699;-66
2021/12/10 09:27:45;;;;;;;0.60;0.60;;;;;;;;;;5094045;28;20183;-67
2021/12/10 09:30:13;;;;;;;0.70;0.70;;;;;;;;;;5093977;28;20174;-66
2021/12/10 09:32:40;;;;;;;0.60;0.60;;;;;;;;;;5093921;28;20201;-66
2021/12/10 09:35:07;;;;;;;0.50;0.50;;;;;;;;;;5093306;28;20182;-67
2021/12/10 09:37:33;;;;;;;0.60;0.60;;;;;;;;;;5093894;28;20171;-67
2021/12/10 09:39:59;;;;;;;0.60;0.60;;;;;;;;;;5093614;28;20194;-66
2021/12/10 09:42:25;;;;;;;0.60;0.60;;;;;;;;;;5075646;28;20344;-67
2021/12/10 09:44:52;;;;;;;0.50;0.50;;;;;;;;;;5093541;28;20172;-67
2021/12/10 09:47:19;;;;;;;0.60;0.60;;;;;;;;;;5093705;28;20183;-67
2021/12/10 09:49:47;;;;;;;0.50;0.50;;;;;;;;;;5075441;28;20175;-67
2021/12/10 09:52:15;;;;;;;0.60;0.60;;;;;;;;;;5093381;28;20199;-67
2021/12/10 09:54:42;;;;;;;0.70;0.70;;;;;;;;;;5093369;28;20196;-67
2021/12/10 09:57:10;;;;;;;0.60;0.60;;;;;;;;;;5093403;28;20697;-67
2021/12/10 09:59:37;;;;;;;0.60;0.60;;;;;;;;;;5093117;28;20197;-67
2021/12/10 10:02:04;;;;;;;0.68;0.68;;;;;;;;;;5092922;28;20188;-67
2021/12/10 10:04:34;;;;;;;0.50;0.50;;;;;;;;;;5093207;28;20172;-66
2021/12/10 10:07:04;;;;;;;0.50;0.50;;;;;;;;;;5093140;28;20165;-67
2021/12/10 10:09:30;;;;;;;0.50;0.50;;;;;;;;;;5093107;28;20202;-66
2021/12/10 10:11:58;;;;;;;0.60;0.60;;;;;;;;;;5092590;28;20204;-67
2021/12/10 10:14:24;;;;;;;0.50;0.50;;;;;;;;;;5092817;28;20411;-67
2021/12/10 10:16:51;;;;;;;0.50;0.50;;;;;;;;;;5092962;28;20176;-67
2021/12/10 10:19:17;;;;;;;0.70;0.70;;;;;;;;;;5074718;28;20207;-66
2021/12/10 10:21:45;;;;;;;0.50;0.50;;;;;;;;;;5092587;28;20189;-66
2021/12/10 10:24:11;;;;;;;0.57;0.57;;;;;;;;;;5092828;28;20168;-67
2021/12/10 10:26:40;;;;;;;0.50;0.50;;;;;;;;;;5092676;28;20180;-67
2021/12/10 10:29:08;;;;;;;0.50;0.50;;;;;;;;;;5091723;28;20535;-67
2021/12/10 10:31:36;;;;;;;0.60;0.60;;;;;;;;;;5092489;28;20160;-67
2021/12/10 10:34:03;;;;;;;0.50;0.50;;;;;;;;;;5092679;28;20200;-67
2021/12/10 10:36:31;;;;;;;0.50;0.50;;;;;;;;;;5092664;28;20168;-67
2021/12/10 10:39:10;;;;;;;0.50;0.50;;;;;;;;;;5092575;28;20225;-67
2021/12/10 10:41:37;;;;;;;0.50;0.50;;;;;;;;;;5092344;28;20163;-65
2021/12/10 10:44:03;;;;;;;0.60;0.60;;;;;;;;;;5092400;28;20178;-66
2021/12/10 10:46:30;;;;;;;0.50;0.50;;;;;;;;;;5092398;28;20177;-66
2021/12/10 10:48:56;;;;;;;0.60;0.60;;;;;;;;;;5092332;28;20179;-67
2021/12/10 10:51:31;;;;;;;0.50;0.50;;;;;;;;;;5092090;28;20175;-66
2021/12/10 10:53:59;;;;;;;0.50;0.50;;;;;;;;;;5092248;28;20496;-65
2021/12/10 10:56:27;;;;;;;0.50;0.50;;;;;;;;;;5092368;28;20215;-67
2021/12/10 10:58:56;;;;;;;0.50;0.50;;;;;;;;;;5092272;28;20180;-66
2021/12/10 11:01:29;;;;;;;0.60;0.60;;;;;;;;;;5092010;28;20188;-67
2021/12/10 11:04:02;;;;;;;0.50;0.50;;;;;;;;;;5092036;28;20646;-67
2021/12/10 11:06:28;;;;;;;0.60;0.60;;;;;;;;;;5073975;28;20180;-65
2021/12/10 11:08:56;;;;;;;0.50;0.50;;;;;;;;;;5092037;28;20190;-66
2021/12/10 11:11:34;;;;;;;0.50;0.50;;;;;;;;;;5091719;28;20399;-66
2021/12/10 11:14:02;;;;;;;0.50;0.50;;;;;;;;;;5111723;22;20725;-64
2021/12/10 11:16:29;;;;;;;0.50;0.50;;;;;;;;;;5091828;28;20179;-65
2021/12/10 11:18:58;;;;;;;0.50;0.50;;;;;;;;;;5091867;28;20173;-64
2021/12/10 11:21:43;;;;;;;0.60;0.60;;;;;;;;;;5091546;28;20177;-64
2021/12/10 11:24:27;;;;;;;0.50;0.50;;;;;;;;;;5072752;28;20189;-64
2021/12/10 11:26:58;;;;;;;0.50;0.50;;;;;;;;;;5071327;28;20188;-64
2021/12/10 11:29:32;;;;;;;0.50;0.50;;;;;;;;;;5071425;28;20173;-64
2021/12/10 11:31:59;;;;;;;0.50;0.50;;;;;;;;;;5071052;28;20255;-64
2021/12/10 11:34:46;;;;;;;0.50;0.50;;;;;;;;;;5053261;28;20582;-64
2021/12/10 11:37:14;;;;;;;0.50;0.50;;;;;;;;;;5071128;28;20641;-64
2021/12/10 11:39:41;;;;;;;0.50;0.50;;;;;;;;;;5071021;28;20213;-64
2021/12/10 11:42:26;;;;;;;0.40;0.40;;;;;;;;;;5070963;28;20178;-64
2021/12/10 11:45:16;;;;;;;0.60;0.60;;;;;;;;;;5071232;28;20630;-64
2021/12/10 11:47:51;;;;;;;0.60;0.60;;;;;;;;;;5071056;28;20234;-64
2021/12/10 11:50:20;;;;;;;0.60;0.60;;;;;;;;;;5071135;28;20266;-65
2021/12/10 11:52:59;;;;;;;0.50;0.50;;;;;;;;;;5071532;28;20257;-65
2021/12/10 11:55:25;;;;;;;0.40;0.40;;;;;;;;;;5071267;28;20177;-64
2021/12/10 11:57:51;;;;;;;0.50;0.50;;;;;;;;;;5053232;28;20189;-65
2021/12/10 12:00:28;;;;;;;0.50;0.50;;;;;;;;;;5070846;28;20342;-65
2021/12/10 12:02:55;;;;;;;0.60;0.60;;;;;;;;;;5071014;28;20814;-65
2021/12/10 12:05:23;;;;;;;0.50;0.50;;;;;;;;;;5070709;28;20169;-65
2021/12/10 12:07:50;;;;;;;0.50;0.50;;;;;;;;;;5070681;28;20253;-67
2021/12/10 12:10:20;;;;;;;0.50;0.50;;;;;;;;;;5070731;28;20273;-65
2021/12/10 12:12:54;;;;;;;0.60;0.60;;;;;;;;;;5070846;28;20213;-65
2021/12/10 12:15:28;;;;;;;0.50;0.50;;;;;;;;;;5070927;28;20249;-65
2021/12/10 12:17:56;;;;;;;0.55;0.55;;;;;;;;;;5071143;28;20652;-64
2021/12/10 12:20:25;;;;;;;0.50;0.50;;;;;;;;;;5070633;28;20198;-64
2021/12/10 12:25:43;;;;;;;0.70;0.70;;;;;;;;;;5070634;28;20555;-65
2021/12/10 12:28:11;;;;;;;0.57;0.57;;;;;;;;;;5069521;28;20516;-65
2021/12/10 12:30:51;;;;;;;0.60;0.60;;;;;;;;;;5070332;28;20185;-65
2021/12/10 12:33:17;;;;;;;0.50;0.50;;;;;;;;;;5070589;28;20196;-65
2021/12/10 12:35:43;;;;;;;0.50;0.50;;;;;;;;;;5070959;28;20556;-65
2021/12/10 12:38:13;;;;;;;0.70;0.70;;;;;;;;;;5070755;28;20207;-65
2021/12/10 12:40:39;;;;;;;0.70;0.70;;;;;;;;;;5070402;28;20247;-65
2021/12/10 12:43:06;;;;;;;0.70;0.70;;;;;;;;;;5070678;28;20191;-65
2021/12/10 12:45:33;;;;;;;0.60;0.60;;;;;;;;;;5070825;28;20159;-65
2021/12/10 12:48:03;;;;;;;0.60;0.60;;;;;;;;;;5070809;28;20229;-65
2021/12/10 12:50:30;;;;;;;0.50;0.50;;;;;;;;;;5070565;28;20207;-65
2021/12/10 12:52:58;;;;;;;0.60;0.60;;;;;;;;;;5072643;28;20191;-65
2021/12/10 12:55:24;;;;;;;0.50;0.50;;;;;;;;;;5074304;28;20712;-65
2021/12/10 12:57:53;;;;;;;0.50;0.50;;;;;;;;;;5074257;28;20254;-65
2021/12/10 13:00:25;;;;;;;0.50;0.50;;;;;;;;;;5055801;28;20468;-65
2021/12/10 13:02:52;;;;;;;0.68;0.68;;;;;;;;;;5067463;28;20207;-65
2021/12/10 13:05:18;;;;;;;0.50;0.50;;;;;;;;;;5054088;28;20632;-64
2021/12/10 13:07:44;;;;;;;0.50;0.50;;;;;;;;;;5054071;28;20256;-65
2021/12/10 13:10:18;;;;;;;0.50;0.50;;;;;;;;;;5053750;28;20586;-65
2021/12/10 13:13:10;;;;;;;0.60;0.60;;;;;;;;;;5053885;28;20227;-65
2021/12/10 13:15:36;;;;;;;0.50;0.50;;;;;;;;;;5053745;28;20172;-65
2021/12/10 13:18:05;;;;;;;0.60;0.60;;;;;;;;;;5053802;28;20180;-65
2021/12/10 13:20:33;;;;;;;0.60;0.60;;;;;;;;;;5053534;28;20540;-65
2021/12/10 13:23:02;;;;;;;0.60;0.60;;;;;;;;;;5053425;28;20246;-65
2021/12/10 13:25:30;;;;;;;0.50;0.50;;;;;;;;;;5053259;28;20196;-66
2021/12/10 13:28:00;;;;;;;0.50;0.50;;;;;;;;;;5053326;28;20207;-65
2021/12/10 13:30:30;;;;;;;0.60;0.60;;;;;;;;;;5051665;28;20244;-64
2021/12/10 13:32:57;;;;;;;0.50;0.50;;;;;;;;;;5052804;28;20193;-65
2021/12/10 13:35:24;;;;;;;0.52;0.52;;;;;;;;;;5052880;28;20176;-65
2021/12/10 13:37:51;;;;;;;0.50;0.50;;;;;;;;;;5035330;28;20172;-65
2021/12/10 13:40:18;;;;;;;0.50;0.50;;;;;;;;;;5053379;28;20196;-65
2021/12/10 13:42:45;;;;;;;0.40;0.40;;;;;;;;;;5053390;28;20253;-65
2021/12/10 13:45:11;;;;;;;0.50;0.50;;;;;;;;;;5053595;28;20175;-65
2021/12/10 13:47:40;;;;;;;0.50;0.50;;;;;;;;;;5053414;28;20575;-65
2021/12/10 13:50:11;;;;;;;0.50;0.50;;;;;;;;;;5052867;28;20172;-65
2021/12/10 13:52:39;;;;;;;0.60;0.60;;;;;;;;;;5055578;28;20566;-65
2021/12/10 13:55:07;;;;;;;0.50;0.50;;;;;;;;;;5051607;28;20641;-65
2021/12/10 13:57:33;;;;;;;0.50;0.50;;;;;;;;;;5052564;28;20313;-65
2021/12/10 14:00:00;;;;;;;0.70;0.70;;;;;;;;;;5035085;28;20208;-65
2021/12/10 14:02:34;;;;;;;0.60;0.60;;;;;;;;;;5052656;28;20218;-65
2021/12/10 14:05:15;;;;;;;0.50;0.50;;;;;;;;;;5052875;28;20190;-65
2021/12/10 14:07:49;;;;;;;0.50;0.50;;;;;;;;;;5052950;28;20180;-64
2021/12/10 14:10:23;;;;;;;0.60;0.60;;;;;;;;;;5036455;28;20535;-64
2021/12/10 14:12:49;;;;;;;0.60;0.60;;;;;;;;;;5052883;28;20270;-65
2021/12/10 14:15:18;;;;;;;0.60;0.60;;;;;;;;;;5052741;28;20180;-65
2021/12/10 14:17:52;;;;;;;0.60;0.60;;;;;;;;;;5052671;28;20441;-65
2021/12/10 14:20:21;;;;;;;0.50;0.50;;;;;;;;;;5052258;28;20203;-64
2021/12/10 14:22:52;;;;;;;0.60;0.60;;;;;;;;;;5052341;28;20606;-64
2021/12/10 14:25:26;;;;;;;0.60;0.60;;;;;;;;;;5052580;28;20174;-65
2021/12/10 14:27:57;;;;;;;0.50;0.50;;;;;;;;;;5052498;28;20170;-65
2021/12/10 14:30:29;;;;;;;0.60;0.60;;;;;;;;;;5052303;28;20168;-64
2021/12/10 14:33:01;;;;;;;0.60;0.60;;;;;;;;;;5052192;28;20199;-64
2021/12/10 14:35:27;;;;;;;0.80;0.80;;;;;;;;;;5052446;28;20180;-65
2021/12/10 14:37:59;;;;;;;0.60;0.60;;;;;;;;;;5051619;28;20187;-65
2021/12/10 14:40:28;;;;;;;0.60;0.60;;;;;;;;;;5052118;28;20711;-65
2021/12/10 14:43:06;;;;;;;0.55;0.55;;;;;;;;;;5018131;28;20205;-64
2021/12/10 14:45:33;;;;;;;0.60;0.60;;;;;;;;;;5052036;28;20179;-65
2021/12/10 14:48:09;;;;;;;0.60;0.60;;;;;;;;;;5052000;28;20171;-64
2021/12/10 14:50:35;;;;;;;0.60;0.60;;;;;;;;;;5051485;28;20259;-65
2021/12/10 14:53:01;;;;;;;0.60;0.60;;;;;;;;;;5050974;28;20220;-65
2021/12/10 14:55:38;;;;;;;0.60;0.60;;;;;;;;;;5051049;28;20492;-65
2021/12/10 14:58:10;;;;;;;0.60;0.60;;;;;;;;;;5051826;28;20583;-65
2021/12/10 15:00:51;;;;;;;0.60;0.60;;;;;;;;;;5051547;28;20215;-65